sensor_id;sensor_type;location;lat;lon;timestamp;P1;P4;P2;P0;N10;N4;N25;N1;N05;TS
83491;SPS30;73661;56.120;12.302;2024-03-23T00:53:50;15.77;13.68;9.55;4.31;34.33;34.25;33.66;28.72;16.93;1.05
83491;SPS30;73661;56.120;12.302;2024-03-23T00:56:16;13.56;11.81;8.38;3.98;31.75;31.69;31.20;27.07;16.88;1.00
83491;SPS30;73661;56.120;12.302;2024-03-23T00:58:42;14.45;12.57;8.88;4.17;33.20;33.13;32.61;28.18;17.34;1.01
83491;SPS30;73661;56.120;12.302;2024-03-23T01:01:08;15.26;13.28;9.39;4.42;35.24;35.17;34.61;29.95;18.49;1.01
83491;SPS30;73661;56.120;12.302;2024-03-23T01:03:33;14.78;12.90;9.20;4.47;35.63;35.56;35.04;30.60;19.46;0.98
83491;SPS30;73661;56.120;12.302;2024-03-23T01:06:02;15.23;13.28;9.43;4.51;35.97;35.89;35.35;30.73;19.27;0.99
83491;SPS30;73661;56.120;12.302;2024-03-23T01:08:31;15.89;13.87;9.88;4.78;38.07;37.99;37.42;32.63;20.67;0.99
83491;SPS30;73661;56.120;12.302;2024-03-23T01:10:58;14.62;12.77;9.12;4.45;35.51;35.44;34.92;30.54;19.52;0.99
83491;SPS30;73661;56.120;12.302;2024-03-23T01:13:25;14.05;12.28;8.80;4.33;34.51;34.44;33.94;29.76;19.16;0.97
83491;SPS30;73661;56.120;12.302;2024-03-23T01:15:52;14.74;12.84;9.12;4.35;34.69;34.61;34.09;29.61;18.53;1.00
83491;SPS30;73661;56.120;12.302;2024-03-23T01:18:19;13.31;11.61;8.29;4.03;32.13;32.06;31.59;27.60;17.58;0.98
83491;SPS30;73661;56.120;12.302;2024-03-23T01:20:45;13.69;11.94;8.49;4.08;32.49;32.43;31.94;27.80;17.49;0.99
83491;SPS30;73661;56.120;12.302;2024-03-23T01:23:11;13.60;11.86;8.46;4.09;32.64;32.58;32.09;28.00;17.76;0.98
83491;SPS30;73661;56.120;12.302;2024-03-23T01:25:37;15.50;13.47;9.48;4.39;34.96;34.88;34.32;29.53;17.91;1.00
83491;SPS30;73661;56.120;12.302;2024-03-23T01:28:04;13.71;11.94;8.47;4.03;32.10;32.04;31.54;27.37;17.07;0.98
83491;SPS30;73661;56.120;12.302;2024-03-23T01:30:31;13.73;11.96;8.48;4.03;32.16;32.09;31.60;27.42;17.11;0.99
83491;SPS30;73661;56.120;12.302;2024-03-23T01:32:58;13.67;11.91;8.43;3.99;31.79;31.72;31.23;27.06;16.79;0.98
83491;SPS30;73661;56.120;12.302;2024-03-23T01:35:23;14.25;12.41;8.81;4.20;33.46;33.39;32.88;28.55;17.85;0.98
83491;SPS30;73661;56.120;12.302;2024-03-23T01:37:49;13.59;11.84;8.39;4.00;31.84;31.78;31.29;27.16;16.95;0.98
83491;SPS30;73661;56.120;12.302;2024-03-23T01:40:18;13.45;11.74;8.38;4.07;32.48;32.41;31.93;27.90;17.77;0.96
83491;SPS30;73661;56.120;12.302;2024-03-23T01:42:56;14.67;12.80;9.10;4.37;34.86;34.79;34.26;29.83;18.79;0.96
83491;SPS30;73661;56.120;12.302;2024-03-23T01:45:22;12.81;11.22;8.09;4.06;32.35;32.29;31.84;28.08;18.39;0.94
83491;SPS30;73661;56.120;12.302;2024-03-23T01:47:49;13.97;12.25;8.88;4.52;36.07;36.00;35.52;31.46;20.88;0.95
83491;SPS30;73661;56.120;12.302;2024-03-23T01:50:16;14.28;12.47;8.91;4.36;34.72;34.65;34.14;29.87;19.11;0.98
83491;SPS30;73661;56.120;12.302;2024-03-23T01:52:42;14.80;12.93;9.24;4.52;36.01;35.94;35.42;30.99;19.84;0.98
83491;SPS30;73661;56.120;12.302;2024-03-23T01:55:08;14.42;12.56;8.89;4.20;33.46;33.39;32.87;28.46;17.63;1.01
83491;SPS30;73661;56.120;12.302;2024-03-23T01:57:34;15.81;13.76;9.73;4.58;36.53;36.45;35.87;31.03;19.16;1.00
83491;SPS30;73661;56.120;12.302;2024-03-23T01:59:59;12.89;11.30;8.17;4.15;33.05;32.99;32.54;28.78;19.02;0.94
83491;SPS30;73661;56.120;12.302;2024-03-23T02:02:25;14.10;12.30;8.76;4.22;33.66;33.59;33.09;28.83;18.22;0.98
83491;SPS30;73661;56.120;12.302;2024-03-23T02:04:51;14.60;12.76;9.15;4.51;35.95;35.87;35.36;31.02;20.01;0.97
83491;SPS30;73661;56.120;12.302;2024-03-23T02:07:16;13.80;12.10;8.74;4.41;35.19;35.12;34.64;30.60;20.16;0.95
83491;SPS30;73661;56.120;12.302;2024-03-23T02:09:42;13.33;11.69;8.48;4.35;34.65;34.59;34.13;30.27;20.17;0.94
83491;SPS30;73661;56.120;12.302;2024-03-23T02:12:09;13.03;11.45;8.34;4.32;34.42;34.36;33.91;30.17;20.28;0.95
83491;SPS30;73661;56.120;12.302;2024-03-23T02:14:36;11.77;10.35;7.56;3.96;31.55;31.50;31.10;27.74;18.79;0.94
83491;SPS30;73661;56.120;12.302;2024-03-23T02:17:01;12.55;11.02;8.02;4.14;33.00;32.94;32.51;28.89;19.37;0.94
83491;SPS30;73661;56.120;12.302;2024-03-23T02:19:27;12.61;11.05;8.00;4.06;32.40;32.34;31.91;28.23;18.68;0.95
83491;SPS30;73661;56.120;12.302;2024-03-23T02:21:53;13.88;12.12;8.66;4.23;33.71;33.64;33.15;28.99;18.54;0.98
83491;SPS30;73661;56.120;12.302;2024-03-23T02:24:18;12.21;10.66;7.60;3.69;29.44;29.38;28.95;25.28;16.09;0.98
83491;SPS30;73661;56.120;12.302;2024-03-23T02:26:44;12.52;10.95;7.86;3.90;31.05;30.99;30.55;26.84;17.39;0.96
83491;SPS30;73661;56.120;12.302;2024-03-23T02:29:09;12.31;10.77;7.72;3.81;30.40;30.34;29.91;26.25;16.95;0.97
83491;SPS30;73661;56.120;12.302;2024-03-23T02:31:35;13.61;11.87;8.45;4.08;32.48;32.42;31.93;27.83;17.58;1.00
83491;SPS30;73661;56.120;12.302;2024-03-23T02:34:01;13.07;11.38;8.07;3.83;30.56;30.49;30.02;26.05;16.23;1.01
83491;SPS30;73661;56.120;12.302;2024-03-23T02:36:28;12.24;10.71;7.69;3.81;30.40;30.34;29.91;26.29;17.04;0.97
83491;SPS30;73661;56.120;12.302;2024-03-23T02:38:55;13.25;11.55;8.20;3.93;31.30;31.24;30.76;26.75;16.79;1.00
83491;SPS30;73661;56.120;12.302;2024-03-23T02:41:21;13.14;11.42;8.05;3.74;29.83;29.77;29.29;25.24;15.39;1.01
83491;SPS30;73661;56.120;12.302;2024-03-23T02:43:51;13.05;11.39;8.13;3.95;31.52;31.45;30.99;27.08;17.25;0.96
83491;SPS30;73661;56.120;12.302;2024-03-23T02:46:17;13.75;11.98;8.51;4.07;32.45;32.39;31.89;27.72;17.38;0.99
83491;SPS30;73661;56.120;12.302;2024-03-23T02:48:43;13.90;12.08;8.49;3.93;31.30;31.23;30.72;26.42;16.01;1.01
83491;SPS30;73661;56.120;12.302;2024-03-23T02:51:09;13.72;11.96;8.49;4.06;32.33;32.26;31.77;27.60;17.29;0.99
83491;SPS30;73661;56.120;12.302;2024-03-23T02:53:34;12.37;10.79;7.69;3.71;29.61;29.55;29.11;25.39;16.08;1.00
83491;SPS30;73661;56.120;12.302;2024-03-23T02:56:00;12.93;11.27;8.02;3.86;30.74;30.68;30.22;26.31;16.58;1.01
83491;SPS30;73661;56.120;12.302;2024-03-23T02:58:26;12.35;10.74;7.59;3.56;28.38;28.31;27.87;24.08;14.81;1.03
83491;SPS30;73661;56.120;12.302;2024-03-23T03:00:52;12.38;10.81;7.73;3.77;30.07;30.01;29.57;25.87;16.54;0.98
83491;SPS30;73661;56.120;12.302;2024-03-23T03:03:17;12.12;10.59;7.58;3.72;29.68;29.62;29.19;25.58;16.44;0.97
83491;SPS30;73661;56.120;12.302;2024-03-23T03:05:43;13.25;11.57;8.27;4.05;32.25;32.18;31.71;27.75;17.76;0.98
83491;SPS30;73661;56.120;12.302;2024-03-23T03:08:09;12.63;11.02;7.86;3.81;30.34;30.27;29.82;26.02;16.51;0.99
83491;SPS30;73661;56.120;12.302;2024-03-23T03:10:34;11.80;10.28;7.30;3.49;27.82;27.76;27.34;23.76;14.89;1.01
83491;SPS30;73661;56.120;12.302;2024-03-23T03:13:01;14.03;12.23;8.70;4.18;33.29;33.22;32.72;28.48;17.93;0.99
83491;SPS30;73661;56.120;12.302;2024-03-23T03:15:27;12.45;10.87;7.77;3.79;30.25;30.19;29.75;26.02;16.64;0.97
83491;SPS30;73661;56.120;12.302;2024-03-23T03:17:53;13.39;11.65;8.24;3.88;30.90;30.83;30.34;26.24;16.19;1.00
83491;SPS30;73661;56.120;12.302;2024-03-23T03:20:19;12.94;11.33;8.15;4.08;32.51;32.45;32.00;28.18;18.40;0.97
83491;SPS30;73661;56.120;12.302;2024-03-23T03:22:47;13.39;11.70;8.39;4.13;32.93;32.87;32.39;28.41;18.31;0.97
83491;SPS30;73661;56.120;12.302;2024-03-23T03:25:12;13.54;11.82;8.44;4.12;32.83;32.76;32.28;28.23;18.02;0.97
83491;SPS30;73661;56.120;12.302;2024-03-23T03:27:38;13.33;11.65;8.34;4.10;32.66;32.60;32.13;28.15;18.10;0.96
83491;SPS30;73661;56.120;12.302;2024-03-23T03:30:04;12.54;10.98;7.91;3.96;31.58;31.52;31.08;27.39;17.91;0.94
83491;SPS30;73661;56.120;12.302;2024-03-23T03:32:32;12.85;11.26;8.15;4.14;32.99;32.93;32.48;28.74;19.01;0.93
83491;SPS30;73661;56.120;12.302;2024-03-23T03:34:58;13.28;11.66;8.49;4.39;34.98;34.92;34.47;30.65;20.57;0.93
83491;SPS30;73661;56.120;12.302;2024-03-23T03:37:24;12.93;11.35;8.26;4.27;34.04;33.97;33.53;29.81;20.00;0.94
83491;SPS30;73661;56.120;12.302;2024-03-23T03:39:50;13.08;11.49;8.36;4.32;34.41;34.35;33.91;30.14;20.21;0.92
83491;SPS30;73661;56.120;12.302;2024-03-23T03:42:16;12.27;10.73;7.71;3.83;30.51;30.45;30.02;26.39;17.12;0.94
83491;SPS30;73661;56.120;12.302;2024-03-23T03:44:41;13.71;12.00;8.62;4.30;34.25;34.18;33.70;29.65;19.30;0.95
83491;SPS30;73661;56.120;12.302;2024-03-23T03:47:07;14.38;12.59;9.07;4.55;36.27;36.20;35.70;31.47;20.60;0.94
83491;SPS30;73661;56.120;12.302;2024-03-23T03:49:33;13.78;12.05;8.63;4.25;33.90;33.83;33.35;29.25;18.85;0.96
83491;SPS30;73661;56.120;12.302;2024-03-23T03:51:59;13.07;11.44;8.23;4.10;32.72;32.66;32.20;28.34;18.47;0.95
83491;SPS30;73661;56.120;12.302;2024-03-23T03:54:26;13.99;12.24;8.81;4.41;35.12;35.05;34.57;30.44;19.87;0.94
83491;SPS30;73661;56.120;12.302;2024-03-23T03:56:52;12.71;11.16;8.11;4.17;33.29;33.23;32.79;29.12;19.48;0.92
83491;SPS30;73661;56.120;12.302;2024-03-23T03:59:18;13.12;11.50;8.30;4.19;33.38;33.32;32.86;29.02;19.09;0.94
83491;SPS30;73661;56.120;12.302;2024-03-23T04:01:44;13.67;11.95;8.58;4.25;33.86;33.79;33.31;29.26;18.94;0.95
83491;SPS30;73661;56.120;12.302;2024-03-23T04:04:10;13.31;11.64;8.36;4.16;33.14;33.07;32.61;28.67;18.62;0.95
83491;SPS30;73661;56.120;12.302;2024-03-23T04:06:36;12.10;10.58;7.57;3.72;29.62;29.56;29.13;25.52;16.40;0.97
83491;SPS30;73661;56.120;12.302;2024-03-23T04:09:02;13.69;11.99;8.66;4.37;34.83;34.76;34.28;30.28;19.92;0.94
83491;SPS30;73661;56.120;12.302;2024-03-23T04:11:28;12.93;11.36;8.26;4.27;34.05;33.99;33.55;29.83;20.01;0.93
83491;SPS30;73661;56.120;12.302;2024-03-23T04:13:53;12.61;11.08;8.09;4.22;33.64;33.58;33.15;29.55;19.97;0.92
83491;SPS30;73661;56.120;12.302;2024-03-23T04:16:33;13.02;11.44;8.32;4.30;34.30;34.24;33.80;30.05;20.17;0.93
83491;SPS30;73661;56.120;12.302;2024-03-23T04:19:00;13.18;11.53;8.29;4.12;32.86;32.79;32.33;28.43;18.48;0.96
83491;SPS30;73661;56.120;12.302;2024-03-23T04:21:26;14.16;12.35;8.80;4.25;33.87;33.80;33.29;29.02;18.37;0.98
83491;SPS30;73661;56.120;12.302;2024-03-23T04:23:52;13.78;12.05;8.66;4.30;34.30;34.23;33.75;29.67;19.26;0.97
83491;SPS30;73661;56.120;12.302;2024-03-23T04:26:18;14.65;12.82;9.23;4.60;36.71;36.64;36.13;31.80;20.73;0.97
83491;SPS30;73661;56.120;12.302;2024-03-23T04:28:44;14.51;12.66;9.03;4.38;34.92;34.85;34.33;29.97;19.05;0.98
83491;SPS30;73661;56.120;12.302;2024-03-23T04:31:09;14.01;12.20;8.64;4.09;32.64;32.57;32.06;27.79;17.27;0.99
83491;SPS30;73661;56.120;12.302;2024-03-23T04:33:35;12.84;11.20;7.98;3.86;30.76;30.69;30.23;26.37;16.70;0.97
83491;SPS30;73661;56.120;12.302;2024-03-23T04:36:01;13.09;11.46;8.27;4.16;33.19;33.13;32.67;28.83;18.94;0.95
83491;SPS30;73661;56.120;12.302;2024-03-23T04:38:28;12.54;11.01;8.01;4.14;32.97;32.92;32.49;28.87;19.36;0.93
83491;SPS30;73661;56.120;12.302;2024-03-23T04:40:57;12.64;11.12;8.13;4.26;34.00;33.95;33.52;29.92;20.30;0.93
83491;SPS30;73661;56.120;12.302;2024-03-23T04:43:23;12.84;11.23;8.07;4.00;31.91;31.84;31.39;27.59;17.89;0.98
83491;SPS30;73661;56.120;12.302;2024-03-23T04:45:49;13.98;12.23;8.78;4.35;34.67;34.60;34.11;29.96;19.41;0.97
83491;SPS30;73661;56.120;12.302;2024-03-23T04:48:15;14.00;12.24;8.77;4.32;34.45;34.38;33.89;29.72;19.16;0.96
83491;SPS30;73661;56.120;12.302;2024-03-23T04:50:40;12.98;11.34;8.11;3.97;31.67;31.61;31.15;27.27;17.49;0.97
83491;SPS30;73661;56.120;12.302;2024-03-23T04:53:06;12.92;11.30;8.12;4.04;32.23;32.17;31.72;27.90;18.14;0.98
83491;SPS30;73661;56.120;12.302;2024-03-23T04:55:32;12.28;10.76;7.77;3.92;31.24;31.18;30.75;27.15;17.86;0.97
83491;SPS30;73661;56.120;12.302;2024-03-23T04:57:58;12.29;10.78;7.81;3.98;31.73;31.67;31.24;27.67;18.36;0.95
83491;SPS30;73661;56.120;12.302;2024-03-23T05:00:24;12.31;10.78;7.78;3.93;31.32;31.26;30.83;27.23;17.92;0.96
83491;SPS30;73661;56.120;12.302;2024-03-23T05:02:50;13.23;11.56;8.27;4.05;32.26;32.19;31.73;27.77;17.80;0.98
83491;SPS30;73661;56.120;12.302;2024-03-23T05:05:16;13.31;11.62;8.29;4.03;32.14;32.07;31.60;27.60;17.57;0.98
83491;SPS30;73661;56.120;12.302;2024-03-23T05:07:41;12.89;11.27;8.07;3.98;31.71;31.64;31.19;27.35;17.63;0.96
83491;SPS30;73661;56.120;12.302;2024-03-23T05:10:09;12.85;11.22;8.03;3.93;31.30;31.24;30.78;26.94;17.26;0.96
83491;SPS30;73661;56.120;12.302;2024-03-23T05:12:38;12.69;11.09;7.95;3.91;31.16;31.10;30.65;26.87;17.29;0.97
83491;SPS30;73661;56.120;12.302;2024-03-23T05:15:05;12.75;11.17;8.06;4.06;32.35;32.29;31.85;28.11;18.46;0.95
83491;SPS30;73661;56.120;12.302;2024-03-23T05:17:32;11.69;10.25;7.41;3.76;29.99;29.93;29.52;26.11;17.26;0.93
83491;SPS30;73661;56.120;12.302;2024-03-23T05:19:59;12.36;10.83;7.82;3.95;31.47;31.41;30.98;27.36;18.01;0.93
83491;SPS30;73661;56.120;12.302;2024-03-23T05:22:25;13.03;11.37;8.09;3.90;31.10;31.03;30.57;26.64;16.83;0.98
83491;SPS30;73661;56.120;12.302;2024-03-23T05:24:52;12.81;11.19;8.01;3.93;31.32;31.25;30.80;26.98;17.31;0.98
83491;SPS30;73661;56.120;12.302;2024-03-23T05:27:18;13.58;11.84;8.40;4.02;32.03;31.96;31.47;27.35;17.14;1.00
83491;SPS30;73661;56.120;12.302;2024-03-23T05:29:44;13.68;11.93;8.47;4.06;32.35;32.29;31.80;27.65;17.36;0.99
83491;SPS30;73661;56.120;12.302;2024-03-23T05:32:10;12.04;10.49;7.46;3.58;28.51;28.45;28.02;24.38;15.32;0.99
83491;SPS30;73661;56.120;12.302;2024-03-23T05:34:35;13.06;11.40;8.14;3.97;31.64;31.57;31.11;27.20;17.36;1.00
83491;SPS30;73661;56.120;12.302;2024-03-23T05:37:01;12.99;11.33;8.06;3.87;30.87;30.81;30.34;26.42;16.64;0.99
83491;SPS30;73661;56.120;12.302;2024-03-23T05:39:27;12.09;10.56;7.55;3.69;29.40;29.34;28.92;25.30;16.19;0.97
83491;SPS30;73661;56.120;12.302;2024-03-23T05:41:53;10.70;9.39;6.81;3.48;27.78;27.73;27.36;24.26;16.16;0.93
83491;SPS30;73661;56.120;12.302;2024-03-23T05:44:19;10.31;9.04;6.55;3.34;26.63;26.58;26.22;23.22;15.41;0.93
83491;SPS30;73661;56.120;12.302;2024-03-23T05:46:45;10.31;9.04;6.55;3.34;26.66;26.61;26.26;23.26;15.45;0.93
83491;SPS30;73661;56.120;12.302;2024-03-23T05:49:13;10.42;9.16;6.69;3.49;27.84;27.80;27.44;24.47;16.55;0.91
83491;SPS30;73661;56.120;12.302;2024-03-23T05:51:41;11.08;9.77;7.19;3.85;30.73;30.68;30.31;27.21;18.76;0.89
83491;SPS30;73661;56.120;12.302;2024-03-23T05:54:07;10.60;9.42;7.09;4.03;32.14;32.10;31.76;28.95;20.79;0.87
83491;SPS30;73661;56.120;12.302;2024-03-23T05:56:32;10.08;8.98;6.80;3.94;31.44;31.39;31.08;28.45;20.68;0.85
83491;SPS30;73661;56.120;12.302;2024-03-23T05:58:58;10.76;9.54;7.15;4.02;32.05;32.00;31.66;28.77;20.51;0.87
83491;SPS30;73661;56.120;12.302;2024-03-23T06:01:24;10.28;9.10;6.79;3.78;30.12;30.07;29.74;26.96;19.08;0.87
83491;SPS30;73661;56.120;12.302;2024-03-23T06:03:49;10.26;9.11;6.86;3.90;31.14;31.09;30.77;28.04;20.16;0.85
83491;SPS30;73661;56.120;12.302;2024-03-23T06:06:16;10.97;9.75;7.36;4.22;33.69;33.64;33.30;30.41;21.97;0.84
83491;SPS30;73661;56.120;12.302;2024-03-23T06:08:41;10.84;9.62;7.22;4.08;32.54;32.50;32.15;29.25;20.93;0.86
83491;SPS30;73661;56.120;12.302;2024-03-23T06:11:07;11.84;10.53;7.95;4.56;36.38;36.32;35.95;32.84;23.72;0.85
83491;SPS30;73661;56.120;12.302;2024-03-23T06:13:33;10.52;9.39;7.15;4.20;33.49;33.44;33.12;30.41;22.28;0.82
83491;SPS30;73661;56.120;12.302;2024-03-23T06:15:59;10.79;9.61;7.29;4.23;33.77;33.73;33.39;30.59;22.26;0.82
83491;SPS30;73661;56.120;12.302;2024-03-23T06:18:25;10.95;9.77;7.43;4.35;34.70;34.65;34.32;31.49;23.03;0.82
83491;SPS30;73661;56.120;12.302;2024-03-23T06:20:51;10.64;9.53;7.36;4.47;35.64;35.59;35.28;32.64;24.38;0.81
83491;SPS30;73661;56.120;12.302;2024-03-23T06:23:17;9.75;8.72;6.70;4.02;32.03;31.99;31.70;29.25;21.69;0.80
83491;SPS30;73661;56.120;12.302;2024-03-23T06:25:45;10.33;9.21;7.02;4.13;32.98;32.93;32.62;29.97;21.98;0.82
83491;SPS30;73661;56.120;12.302;2024-03-23T06:28:11;11.47;10.18;7.64;4.32;34.44;34.39;34.03;30.97;22.16;0.86
83491;SPS30;73661;56.120;12.302;2024-03-23T06:30:37;11.16;9.91;7.44;4.21;33.61;33.56;33.21;30.23;21.66;0.86
83491;SPS30;73661;56.120;12.302;2024-03-23T06:33:03;11.27;9.96;7.38;4.03;32.12;32.06;31.70;28.59;19.98;0.90
83491;SPS30;73661;56.120;12.302;2024-03-23T06:35:29;12.00;10.61;7.87;4.30;34.27;34.21;33.82;30.51;21.34;0.88
83491;SPS30;73661;56.120;12.302;2024-03-23T06:37:54;12.40;10.90;7.95;4.13;32.95;32.89;32.47;28.92;19.50;0.91
83491;SPS30;73661;56.120;12.302;2024-03-23T06:40:20;12.45;10.92;7.90;4.02;32.06;32.00;31.57;27.95;18.52;0.93
83491;SPS30;73661;56.120;12.302;2024-03-23T06:42:45;12.94;11.35;8.21;4.18;33.33;33.26;32.82;29.05;19.25;0.93
83491;SPS30;73661;56.120;12.302;2024-03-23T06:45:11;12.70;11.13;8.03;4.05;32.32;32.26;31.82;28.10;18.49;0.95
83491;SPS30;73661;56.120;12.302;2024-03-23T06:47:37;12.71;11.15;8.10;4.16;33.14;33.08;32.64;28.96;19.33;0.96
83491;SPS30;73661;56.120;12.302;2024-03-23T06:50:03;13.20;11.56;8.33;4.18;33.29;33.22;32.76;28.88;18.90;0.97
83491;SPS30;73661;56.120;12.302;2024-03-23T06:52:29;14.52;12.67;9.05;4.40;35.10;35.03;34.51;30.16;19.22;0.98
83491;SPS30;73661;56.120;12.302;2024-03-23T06:54:56;13.75;12.03;8.64;4.30;34.24;34.18;33.69;29.63;19.24;0.96
83491;SPS30;73661;56.120;12.302;2024-03-23T06:57:22;14.38;12.57;9.02;4.45;35.47;35.40;34.89;30.62;19.76;0.96
83491;SPS30;73661;56.120;12.302;2024-03-23T06:59:48;13.13;11.44;8.10;3.85;30.65;30.59;30.11;26.12;16.25;0.98
83491;SPS30;73661;56.120;12.302;2024-03-23T07:02:14;13.67;11.90;8.43;3.99;31.84;31.77;31.27;27.11;16.84;0.98
83491;SPS30;73661;56.120;12.302;2024-03-23T07:04:41;12.50;10.91;7.80;3.80;30.30;30.24;29.80;26.05;16.64;0.96
83491;SPS30;73661;56.120;12.302;2024-03-23T07:07:07;14.09;12.32;8.84;4.38;34.88;34.81;34.32;30.14;19.51;0.96
83491;SPS30;73661;56.120;12.302;2024-03-23T07:09:33;13.07;11.40;8.11;3.91;31.17;31.11;30.64;26.69;16.86;0.99
83491;SPS30;73661;56.120;12.302;2024-03-23T07:11:59;13.71;11.95;8.49;4.06;32.37;32.30;31.81;27.66;17.35;0.99
83491;SPS30;73661;56.120;12.302;2024-03-23T07:14:25;13.02;11.42;8.28;4.22;33.65;33.59;33.14;29.35;19.48;0.94
83491;SPS30;73661;56.120;12.302;2024-03-23T07:16:51;12.26;10.80;7.93;4.21;33.59;33.53;33.12;29.67;20.33;0.91
83491;SPS30;73661;56.120;12.302;2024-03-23T07:19:17;12.22;10.74;7.83;4.07;32.44;32.38;31.97;28.46;19.19;0.93
83491;SPS30;73661;56.120;12.302;2024-03-23T07:21:43;11.84;10.37;7.48;3.76;30.00;29.95;29.53;26.06;17.10;0.94
83491;SPS30;73661;56.120;12.302;2024-03-23T07:24:09;12.46;10.97;8.02;4.21;33.56;33.50;33.08;29.54;20.06;0.90
83491;SPS30;73661;56.120;12.302;2024-03-23T07:26:36;12.86;11.37;8.43;4.60;36.68;36.62;36.20;32.65;22.82;0.87
83491;SPS30;73661;56.120;12.302;2024-03-23T07:29:03;12.47;10.98;8.06;4.27;34.01;33.96;33.54;30.01;20.52;0.91
83491;SPS30;73661;56.120;12.302;2024-03-23T07:31:29;11.51;10.12;7.39;3.86;30.74;30.69;30.30;27.01;18.26;0.92
83491;SPS30;73661;56.120;12.302;2024-03-23T07:33:55;13.10;11.57;8.54;4.61;36.78;36.72;36.29;32.65;22.65;0.90
83491;SPS30;73661;56.120;12.302;2024-03-23T07:36:20;11.63;10.30;7.68;4.26;33.94;33.89;33.51;30.35;21.44;0.89
83491;SPS30;73661;56.120;12.302;2024-03-23T07:38:46;13.11;11.61;8.65;4.79;38.23;38.17;37.75;34.18;24.13;0.88
83491;SPS30;73661;56.120;12.302;2024-03-23T07:41:15;12.02;10.62;7.88;4.31;34.41;34.35;33.96;30.66;21.47;0.91
83491;SPS30;73661;56.120;12.302;2024-03-23T07:43:43;12.43;10.95;8.05;4.28;34.14;34.09;33.67;30.17;20.70;0.93
83491;SPS30;73661;56.120;12.302;2024-03-23T07:46:09;12.77;11.23;8.19;4.28;34.09;34.03;33.60;29.95;20.25;0.92
83491;SPS30;73661;56.120;12.302;2024-03-23T07:48:35;13.80;12.08;8.70;4.35;34.69;34.63;34.15;30.08;19.66;0.93
83491;SPS30;73661;56.120;12.302;2024-03-23T07:53:27;12.37;10.95;8.17;4.54;36.24;36.18;35.78;32.43;22.95;0.86
83491;SPS30;73661;56.120;12.302;2024-03-23T07:56:03;11.96;10.62;7.97;4.51;35.97;35.91;35.54;32.34;23.16;0.85
83491;SPS30;73661;56.120;12.302;2024-03-23T07:58:29;12.59;11.11;8.21;4.45;35.47;35.41;35.00;31.51;21.90;0.90
83491;SPS30;73661;56.120;12.302;2024-03-23T08:00:56;11.53;10.20;7.59;4.18;33.32;33.27;32.89;29.74;20.91;0.88
83491;SPS30;73661;56.120;12.302;2024-03-23T08:03:28;12.77;11.24;8.24;4.36;34.77;34.71;34.29;30.67;20.96;0.92
83491;SPS30;73661;56.120;12.302;2024-03-23T08:05:54;13.77;12.08;8.76;4.48;35.68;35.61;35.14;31.15;20.71;0.96
83491;SPS30;73661;56.120;12.302;2024-03-23T08:08:21;12.85;11.29;8.22;4.27;34.01;33.95;33.51;29.82;20.07;0.94
83491;SPS30;73661;56.120;12.302;2024-03-23T08:10:50;12.46;10.98;8.08;4.32;34.44;34.38;33.96;30.47;20.98;0.91
83491;SPS30;73661;56.120;12.302;2024-03-23T08:13:16;13.15;11.58;8.48;4.47;35.64;35.58;35.14;31.41;21.40;0.94
83491;SPS30;73661;56.120;12.302;2024-03-23T08:15:43;12.16;10.72;7.90;4.23;33.75;33.69;33.29;29.89;20.62;0.92
83491;SPS30;73661;56.120;12.302;2024-03-23T08:18:09;13.05;11.48;8.39;4.41;35.13;35.07;34.63;30.92;21.00;0.92
83491;SPS30;73661;56.120;12.302;2024-03-23T08:20:36;11.65;10.21;7.39;3.76;29.99;29.94;29.53;26.14;17.32;0.93
83491;SPS30;73661;56.120;12.302;2024-03-23T08:23:02;12.07;10.63;7.80;4.14;33.01;32.95;32.55;29.14;19.95;0.89
83491;SPS30;73661;56.120;12.302;2024-03-23T08:25:30;11.66;10.32;7.68;4.24;33.83;33.78;33.40;30.22;21.29;0.86
83491;SPS30;73661;56.120;12.302;2024-03-23T08:27:56;11.36;10.03;7.40;3.99;31.82;31.76;31.39;28.22;19.55;0.89
83491;SPS30;73661;56.120;12.302;2024-03-23T08:30:22;12.41;10.96;8.11;4.41;35.17;35.11;34.70;31.27;21.79;0.90
83491;SPS30;73661;56.120;12.302;2024-03-23T08:32:48;11.50;10.20;7.65;4.31;34.34;34.29;33.93;30.84;22.01;0.86
83491;SPS30;73661;56.120;12.302;2024-03-23T08:35:13;10.54;9.40;7.15;4.18;33.32;33.27;32.95;30.22;22.08;0.84
83491;SPS30;73661;56.120;12.302;2024-03-23T08:37:39;10.50;9.33;7.05;4.04;32.25;32.21;31.88;29.12;21.03;0.85
83491;SPS30;73661;56.120;12.302;2024-03-23T08:40:05;11.00;9.76;7.32;4.14;32.99;32.94;32.59;29.65;21.20;0.84
83491;SPS30;73661;56.120;12.302;2024-03-23T08:42:31;10.14;8.98;6.69;3.71;29.57;29.52;29.19;26.43;18.66;0.87
83491;SPS30;73661;56.120;12.302;2024-03-23T08:44:57;11.32;10.04;7.52;4.23;33.74;33.69;33.33;30.30;21.61;0.85
83491;SPS30;73661;56.120;12.302;2024-03-23T08:47:23;11.47;10.21;7.74;4.48;35.74;35.69;35.34;32.35;23.51;0.85
83491;SPS30;73661;56.120;12.302;2024-03-23T08:49:48;10.40;9.23;6.94;3.93;31.36;31.31;30.98;28.21;20.22;0.86
83491;SPS30;73661;56.120;12.302;2024-03-23T08:52:14;10.43;9.26;6.95;3.93;31.32;31.27;30.94;28.16;20.14;0.86
83491;SPS30;73661;56.120;12.302;2024-03-23T08:54:40;10.69;9.49;7.11;4.01;31.95;31.91;31.57;28.70;20.49;0.88
83491;SPS30;73661;56.120;12.302;2024-03-23T08:57:06;10.82;9.49;6.88;3.52;28.09;28.04;27.67;24.53;16.33;0.94
83491;SPS30;73661;56.120;12.302;2024-03-23T08:59:32;11.02;9.68;7.05;3.65;29.10;29.05;28.67;25.50;17.14;0.93
83491;SPS30;73661;56.120;12.302;2024-03-23T09:01:58;10.74;9.44;6.88;3.58;28.52;28.47;28.10;25.02;16.87;0.94
83491;SPS30;73661;56.120;12.302;2024-03-23T09:04:23;11.66;10.24;7.44;3.83;30.55;30.49;30.09;26.72;17.88;0.94
83491;SPS30;73661;56.120;12.302;2024-03-23T09:06:49;10.48;9.22;6.74;3.53;28.13;28.09;27.73;24.74;16.77;0.94
83491;SPS30;73661;56.120;12.302;2024-03-23T09:09:15;10.85;9.55;6.98;3.66;29.17;29.12;28.75;25.66;17.41;0.92
83491;SPS30;73661;56.120;12.302;2024-03-23T09:11:40;10.72;9.45;6.95;3.71;29.56;29.51;29.15;26.14;17.97;0.91
83491;SPS30;73661;56.120;12.302;2024-03-23T09:14:06;10.33;9.05;6.51;3.26;25.95;25.90;25.54;22.49;14.69;0.96
83491;SPS30;73661;56.120;12.302;2024-03-23T09:16:32;11.98;10.49;7.55;3.78;30.16;30.10;29.69;26.16;17.11;0.95
83491;SPS30;73661;56.120;12.302;2024-03-23T09:18:58;11.43;10.04;7.29;3.75;29.91;29.86;29.47;26.16;17.50;0.92
83491;SPS30;73661;56.120;12.302;2024-03-23T09:21:23;10.67;9.42;6.96;3.77;30.09;30.04;29.69;26.73;18.59;0.88
83491;SPS30;73661;56.120;12.302;2024-03-23T09:23:49;10.91;9.65;7.19;3.97;31.68;31.63;31.28;28.30;19.95;0.89
83491;SPS30;73661;56.120;12.302;2024-03-23T09:26:15;10.66;9.47;7.13;4.07;32.48;32.43;32.09;29.27;21.07;0.86
83491;SPS30;73661;56.120;12.302;2024-03-23T09:28:40;11.16;9.87;7.32;4.00;31.92;31.87;31.51;28.43;19.90;0.91
83491;SPS30;73661;56.120;12.302;2024-03-23T09:31:07;10.79;9.52;7.01;3.77;30.05;30.00;29.64;26.63;18.40;0.91
83491;SPS30;73661;56.120;12.302;2024-03-23T09:33:35;10.87;9.64;7.23;4.07;32.45;32.40;32.05;29.14;20.79;0.87
83491;SPS30;73661;56.120;12.302;2024-03-23T09:36:04;11.06;9.78;7.27;3.99;31.83;31.78;31.42;28.39;19.93;0.89
83491;SPS30;73661;56.120;12.302;2024-03-23T09:38:31;9.63;8.51;6.31;3.44;27.44;27.40;27.08;24.43;17.07;0.89
83491;SPS30;73661;56.120;12.302;2024-03-23T09:40:57;11.17;9.86;7.28;3.93;31.33;31.28;30.91;27.80;19.27;0.91
83491;SPS30;73661;56.120;12.302;2024-03-23T09:43:24;9.90;8.76;6.51;3.58;28.55;28.50;28.18;25.47;17.89;0.89
83491;SPS30;73661;56.120;12.302;2024-03-23T09:45:50;10.37;9.12;6.68;3.51;27.98;27.94;27.59;24.64;16.76;0.93
83491;SPS30;73661;56.120;12.302;2024-03-23T09:48:17;17.12;15.15;11.26;6.19;49.39;49.31;48.76;44.07;30.96;0.91